sensor_id;sensor_type;location;lat;lon;timestamp;pressure;altitude;pressure_sealevel;temperature;humidity
12471;BME280;36499;46.484;13.832;2023-01-29T00:01:36;93605.91;;;0.94;73.30
12471;BME280;36499;46.484;13.832;2023-01-29T00:04:05;93615.22;;;0.95;73.15
12471;BME280;36499;46.484;13.832;2023-01-29T00:06:32;93615.50;;;0.92;73.36
12471;BME280;36499;46.484;13.832;2023-01-29T00:08:59;93612.38;;;0.99;73.23
12471;BME280;36499;46.484;13.832;2023-01-29T00:11:26;93615.09;;;0.97;73.12
12471;BME280;36499;46.484;13.832;2023-01-29T00:13:53;93615.91;;;0.88;73.88
12471;BME280;36499;46.484;13.832;2023-01-29T00:16:20;93605.22;;;1.02;73.17
12471;BME280;36499;46.484;13.832;2023-01-29T00:18:47;93610.53;;;0.91;73.48
12471;BME280;36499;46.484;13.832;2023-01-29T00:21:18;93614.31;;;0.87;74.02
12471;BME280;36499;46.484;13.832;2023-01-29T00:23:47;93613.81;;;0.74;74.77
12471;BME280;36499;46.484;13.832;2023-01-29T00:26:15;93614.03;;;0.90;73.89
12471;BME280;36499;46.484;13.832;2023-01-29T00:28:43;93608.66;;;0.83;73.82
12471;BME280;36499;46.484;13.832;2023-01-29T00:31:13;93616.22;;;0.85;74.18
12471;BME280;36499;46.484;13.832;2023-01-29T00:33:40;93618.97;;;0.74;74.86
12471;BME280;36499;46.484;13.832;2023-01-29T00:36:10;93609.00;;;0.61;75.00
12471;BME280;36499;46.484;13.832;2023-01-29T00:38:39;93613.00;;;0.83;73.85
12471;BME280;36499;46.484;13.832;2023-01-29T00:41:07;93615.22;;;0.59;74.78
12471;BME280;36499;46.484;13.832;2023-01-29T00:43:52;93619.53;;;0.58;74.82
12471;BME280;36499;46.484;13.832;2023-01-29T00:46:37;93620.41;;;0.49;75.16
12471;BME280;36499;46.484;13.832;2023-01-29T00:49:05;93626.06;;;0.53;74.99
12471;BME280;36499;46.484;13.832;2023-01-29T00:51:33;93623.56;;;0.70;74.39
12471;BME280;36499;46.484;13.832;2023-01-29T00:54:01;93617.84;;;0.76;74.10
12471;BME280;36499;46.484;13.832;2023-01-29T00:56:29;93624.44;;;0.88;73.76
12471;BME280;36499;46.484;13.832;2023-01-29T00:58:56;93629.75;;;0.77;74.14
12471;BME280;36499;46.484;13.832;2023-01-29T01:01:24;93626.41;;;0.67;74.37
12471;BME280;36499;46.484;13.832;2023-01-29T01:04:05;93626.03;;;0.62;74.83
12471;BME280;36499;46.484;13.832;2023-01-29T01:06:32;93631.94;;;0.72;74.40
12471;BME280;36499;46.484;13.832;2023-01-29T01:09:01;93625.31;;;0.70;74.04
12471;BME280;36499;46.484;13.832;2023-01-29T01:11:46;93621.56;;;0.91;73.03
12471;BME280;36499;46.484;13.832;2023-01-29T01:14:13;93632.84;;;0.81;73.81
12471;BME280;36499;46.484;13.832;2023-01-29T01:16:40;93630.44;;;0.79;73.67
12471;BME280;36499;46.484;13.832;2023-01-29T01:19:07;93632.41;;;0.85;73.31
12471;BME280;36499;46.484;13.832;2023-01-29T01:21:34;93631.47;;;0.86;73.14
12471;BME280;36499;46.484;13.832;2023-01-29T01:24:03;93642.28;;;0.90;73.04
12471;BME280;36499;46.484;13.832;2023-01-29T01:26:31;93630.66;;;0.86;73.23
12471;BME280;36499;46.484;13.832;2023-01-29T01:28:58;93628.75;;;0.88;73.21
12471;BME280;36499;46.484;13.832;2023-01-29T01:31:25;93626.06;;;0.89;73.05
12471;BME280;36499;46.484;13.832;2023-01-29T01:33:54;93625.22;;;0.99;73.17
12471;BME280;36499;46.484;13.832;2023-01-29T01:36:21;93626.00;;;0.99;72.61
12471;BME280;36499;46.484;13.832;2023-01-29T01:38:48;93619.94;;;1.00;73.11
12471;BME280;36499;46.484;13.832;2023-01-29T01:41:19;93607.88;;;1.10;72.83
12471;BME280;36499;46.484;13.832;2023-01-29T01:43:53;93612.94;;;0.92;72.70
12471;BME280;36499;46.484;13.832;2023-01-29T01:46:23;93613.22;;;0.89;72.71
12471;BME280;36499;46.484;13.832;2023-01-29T01:48:58;93609.25;;;1.05;72.28
12471;BME280;36499;46.484;13.832;2023-01-29T01:51:32;93615.84;;;1.07;72.77
12471;BME280;36499;46.484;13.832;2023-01-29T01:54:06;93615.41;;;1.12;72.10
12471;BME280;36499;46.484;13.832;2023-01-29T01:56:41;93615.28;;;1.13;72.36
12471;BME280;36499;46.484;13.832;2023-01-29T01:59:13;93629.88;;;1.13;72.44
12471;BME280;36499;46.484;13.832;2023-01-29T02:01:46;93624.56;;;1.14;72.35
12471;BME280;36499;46.484;13.832;2023-01-29T02:04:18;93630.53;;;1.15;72.20
12471;BME280;36499;46.484;13.832;2023-01-29T02:07:07;93638.22;;;1.15;72.31
12471;BME280;36499;46.484;13.832;2023-01-29T02:10:00;93638.22;;;1.15;72.05
12471;BME280;36499;46.484;13.832;2023-01-29T02:12:33;93640.53;;;1.18;72.47
12471;BME280;36499;46.484;13.832;2023-01-29T02:15:01;93637.97;;;1.18;72.66
12471;BME280;36499;46.484;13.832;2023-01-29T02:17:29;93645.22;;;1.22;71.98
12471;BME280;36499;46.484;13.832;2023-01-29T02:20:07;93646.84;;;1.23;72.27
12471;BME280;36499;46.484;13.832;2023-01-29T02:23:25;93653.81;;;1.31;72.13
12471;BME280;36499;46.484;13.832;2023-01-29T02:29:28;93659.25;;;1.28;71.96
12471;BME280;36499;46.484;13.832;2023-01-29T02:32:15;93654.94;;;1.28;72.40
12471;BME280;36499;46.484;13.832;2023-01-29T02:34:55;93647.59;;;1.33;72.07
12471;BME280;36499;46.484;13.832;2023-01-29T02:37:53;93650.97;;;1.34;72.54
12471;BME280;36499;46.484;13.832;2023-01-29T02:40:29;93651.47;;;1.37;72.07
12471;BME280;36499;46.484;13.832;2023-01-29T02:43:06;93657.06;;;1.33;72.04
12471;BME280;36499;46.484;13.832;2023-01-29T02:45:45;93654.41;;;1.25;72.60
12471;BME280;36499;46.484;13.832;2023-01-29T02:48:21;93662.38;;;1.22;72.77
12471;BME280;36499;46.484;13.832;2023-01-29T02:50:57;93664.00;;;1.23;72.10
12471;BME280;36499;46.484;13.832;2023-01-29T02:53:35;93657.69;;;1.17;72.49
12471;BME280;36499;46.484;13.832;2023-01-29T02:56:12;93656.19;;;1.15;72.48
12471;BME280;36499;46.484;13.832;2023-01-29T02:58:45;93661.50;;;1.13;72.67
12471;BME280;36499;46.484;13.832;2023-01-29T03:01:22;93660.09;;;1.19;72.97
12471;BME280;36499;46.484;13.832;2023-01-29T03:04:00;93655.13;;;1.17;72.76
12471;BME280;36499;46.484;13.832;2023-01-29T03:06:34;93656.88;;;1.17;73.07
12471;BME280;36499;46.484;13.832;2023-01-29T03:09:07;93658.22;;;1.21;73.32
12471;BME280;36499;46.484;13.832;2023-01-29T03:11:42;93659.81;;;1.22;72.80
12471;BME280;36499;46.484;13.832;2023-01-29T03:14:15;93659.81;;;1.22;73.28
12471;BME280;36499;46.484;13.832;2023-01-29T03:16:50;93666.03;;;1.19;72.83
12471;BME280;36499;46.484;13.832;2023-01-29T03:19:25;93677.72;;;1.14;73.40
12471;BME280;36499;46.484;13.832;2023-01-29T03:22:00;93675.28;;;1.12;73.38
12471;BME280;36499;46.484;13.832;2023-01-29T03:24:37;93688.09;;;1.12;72.62
12471;BME280;36499;46.484;13.832;2023-01-29T03:27:30;93681.88;;;1.15;72.42
12471;BME280;36499;46.484;13.832;2023-01-29T03:30:18;93685.31;;;1.06;72.78
12471;BME280;36499;46.484;13.832;2023-01-29T03:33:07;93695.56;;;1.06;72.63
12471;BME280;36499;46.484;13.832;2023-01-29T03:35:42;93690.81;;;1.11;72.41
12471;BME280;36499;46.484;13.832;2023-01-29T03:38:14;93686.25;;;1.05;72.73
12471;BME280;36499;46.484;13.832;2023-01-29T03:40:49;93683.69;;;1.05;73.05
12471;BME280;36499;46.484;13.832;2023-01-29T03:43:30;93684.34;;;1.07;72.42
12471;BME280;36499;46.484;13.832;2023-01-29T03:46:07;93684.06;;;1.10;72.41
12471;BME280;36499;46.484;13.832;2023-01-29T03:48:45;93692.03;;;1.07;73.12
12471;BME280;36499;46.484;13.832;2023-01-29T03:51:25;93681.75;;;1.07;72.95
12471;BME280;36499;46.484;13.832;2023-01-29T03:54:06;93691.66;;;1.02;72.86
12471;BME280;36499;46.484;13.832;2023-01-29T03:56:46;93689.22;;;1.00;73.06
12471;BME280;36499;46.484;13.832;2023-01-29T03:59:34;93694.88;;;1.04;72.86
12471;BME280;36499;46.484;13.832;2023-01-29T04:02:07;93692.38;;;0.94;72.87
12471;BME280;36499;46.484;13.832;2023-01-29T04:04:41;93687.34;;;0.92;72.87
12471;BME280;36499;46.484;13.832;2023-01-29T04:07:15;93695.06;;;0.92;72.83
12471;BME280;36499;46.484;13.832;2023-01-29T04:09:48;93691.69;;;0.92;73.03
12471;BME280;36499;46.484;13.832;2023-01-29T04:12:23;93687.34;;;0.92;72.85
12471;BME280;36499;46.484;13.832;2023-01-29T04:14:54;93687.34;;;0.92;73.16
12471;BME280;36499;46.484;13.832;2023-01-29T04:17:28;93689.81;;;0.94;72.92
12471;BME280;36499;46.484;13.832;2023-01-29T04:20:00;93683.03;;;0.93;73.11
12471;BME280;36499;46.484;13.832;2023-01-29T04:22:32;93685.59;;;0.93;73.23
12471;BME280;36499;46.484;13.832;2023-01-29T04:25:04;93679.66;;;0.92;73.22
12471;BME280;36499;46.484;13.832;2023-01-29T04:27:46;93668.97;;;0.97;73.36
12471;BME280;36499;46.484;13.832;2023-01-29T04:30:26;93666.41;;;0.97;73.05
12471;BME280;36499;46.484;13.832;2023-01-29T04:33:10;93667.00;;;0.91;73.04
12471;BME280;36499;46.484;13.832;2023-01-29T04:35:54;93671.31;;;0.90;72.87
12471;BME280;36499;46.484;13.832;2023-01-29T04:38:45;93663.59;;;0.90;73.32
12471;BME280;36499;46.484;13.832;2023-01-29T04:41:24;93666.19;;;0.90;73.02
12471;BME280;36499;46.484;13.832;2023-01-29T04:44:05;93666.00;;;0.92;72.94
12471;BME280;36499;46.484;13.832;2023-01-29T04:46:46;93670.50;;;0.90;73.13
12471;BME280;36499;46.484;13.832;2023-01-29T04:49:26;93667.41;;;0.86;73.08
12471;BME280;36499;46.484;13.832;2023-01-29T04:52:06;93667.53;;;0.85;73.47
12471;BME280;36499;46.484;13.832;2023-01-29T04:54:52;93666.88;;;0.83;73.34
12471;BME280;36499;46.484;13.832;2023-01-29T04:57:27;93673.25;;;0.79;73.39
12471;BME280;36499;46.484;13.832;2023-01-29T05:00:02;93677.28;;;0.81;73.83
12471;BME280;36499;46.484;13.832;2023-01-29T05:02:35;93682.28;;;0.83;73.64
12471;BME280;36499;46.484;13.832;2023-01-29T05:05:05;93673.59;;;0.84;73.44
12471;BME280;36499;46.484;13.832;2023-01-29T05:07:36;93670.25;;;0.83;73.43
12471;BME280;36499;46.484;13.832;2023-01-29T05:10:07;93676.31;;;0.82;73.64
12471;BME280;36499;46.484;13.832;2023-01-29T05:12:37;93685.25;;;0.78;73.58
12471;BME280;36499;46.484;13.832;2023-01-29T05:15:11;93685.25;;;0.78;73.66
12471;BME280;36499;46.484;13.832;2023-01-29T05:17:41;93687.41;;;0.73;73.49
12471;BME280;36499;46.484;13.832;2023-01-29T05:20:11;93688.47;;;0.80;73.52
12471;BME280;36499;46.484;13.832;2023-01-29T05:22:41;93691.72;;;0.82;73.35
12471;BME280;36499;46.484;13.832;2023-01-29T05:25:21;93699.84;;;0.78;73.40
12471;BME280;36499;46.484;13.832;2023-01-29T05:27:50;93695.63;;;0.77;73.62
12471;BME280;36499;46.484;13.832;2023-01-29T05:30:35;93701.06;;;0.74;73.49
12471;BME280;36499;46.484;13.832;2023-01-29T05:33:08;93696.47;;;0.77;73.67
12471;BME280;36499;46.484;13.832;2023-01-29T05:35:37;93696.75;;;0.74;73.90
12471;BME280;36499;46.484;13.832;2023-01-29T05:38:05;93702.44;;;0.68;73.91
12471;BME280;36499;46.484;13.832;2023-01-29T05:40:32;93708.50;;;0.67;73.85
12471;BME280;36499;46.484;13.832;2023-01-29T05:42:59;93713.88;;;0.74;73.82
12471;BME280;36499;46.484;13.832;2023-01-29T05:45:27;93704.97;;;0.78;73.79
12471;BME280;36499;46.484;13.832;2023-01-29T05:47:55;93709.28;;;0.77;73.35
12471;BME280;36499;46.484;13.832;2023-01-29T05:50:23;93718.31;;;0.81;73.83
12471;BME280;36499;46.484;13.832;2023-01-29T05:52:56;93714.41;;;0.87;73.01
12471;BME280;36499;46.484;13.832;2023-01-29T05:55:25;93712.91;;;0.84;73.67
12471;BME280;36499;46.484;13.832;2023-01-29T05:57:52;93721.28;;;0.86;73.34
12471;BME280;36499;46.484;13.832;2023-01-29T06:00:20;93722.34;;;0.84;73.52
12471;BME280;36499;46.484;13.832;2023-01-29T06:02:47;93711.97;;;0.85;73.61
12471;BME280;36499;46.484;13.832;2023-01-29T06:05:14;93717.09;;;0.85;73.57
12471;BME280;36499;46.484;13.832;2023-01-29T06:07:41;93713.88;;;0.83;73.36
12471;BME280;36499;46.484;13.832;2023-01-29T06:10:11;93713.88;;;0.83;73.43
12471;BME280;36499;46.484;13.832;2023-01-29T06:12:40;93712.78;;;0.86;73.39
12471;BME280;36499;46.484;13.832;2023-01-29T06:15:09;93706.44;;;0.80;73.22
12471;BME280;36499;46.484;13.832;2023-01-29T06:17:36;93711.31;;;0.83;72.90
12471;BME280;36499;46.484;13.832;2023-01-29T06:20:05;93711.56;;;0.80;73.08
12471;BME280;36499;46.484;13.832;2023-01-29T06:22:32;93710.78;;;0.80;73.52
12471;BME280;36499;46.484;13.832;2023-01-29T06:25:00;93724.28;;;0.82;73.68
12471;BME280;36499;46.484;13.832;2023-01-29T06:27:27;93728.88;;;0.78;73.24
12471;BME280;36499;46.484;13.832;2023-01-29T06:29:55;93734.00;;;0.78;73.17
12471;BME280;36499;46.484;13.832;2023-01-29T06:32:22;93741.00;;;0.76;72.75
12471;BME280;36499;46.484;13.832;2023-01-29T06:34:49;93745.38;;;0.76;73.38
12471;BME280;36499;46.484;13.832;2023-01-29T06:37:17;93748.59;;;0.78;73.15
12471;BME280;36499;46.484;13.832;2023-01-29T06:39:44;93763.44;;;0.74;73.52
12471;BME280;36499;46.484;13.832;2023-01-29T06:42:11;93760.75;;;0.76;73.26
12471;BME280;36499;46.484;13.832;2023-01-29T06:44:38;93773.44;;;0.77;73.67
12471;BME280;36499;46.484;13.832;2023-01-29T06:47:07;93780.19;;;0.78;73.58
12471;BME280;36499;46.484;13.832;2023-01-29T06:49:34;93787.19;;;0.76;73.37
12471;BME280;36499;46.484;13.832;2023-01-29T06:52:01;93790.97;;;0.82;73.91
12471;BME280;36499;46.484;13.832;2023-01-29T06:54:28;93796.53;;;0.87;73.18
12471;BME280;36499;46.484;13.832;2023-01-29T06:56:55;93791.66;;;0.84;73.45
12471;BME280;36499;46.484;13.832;2023-01-29T06:59:22;93790.97;;;0.82;73.53
12471;BME280;36499;46.484;13.832;2023-01-29T07:01:49;93782.88;;;0.77;73.93
12471;BME280;36499;46.484;13.832;2023-01-29T07:04:17;93782.06;;;0.76;74.19
12471;BME280;36499;46.484;13.832;2023-01-29T07:06:44;93775.88;;;0.79;73.61
12471;BME280;36499;46.484;13.832;2023-01-29T07:09:12;93779.38;;;0.78;73.62
12471;BME280;36499;46.484;13.832;2023-01-29T07:11:40;93777.06;;;0.84;72.60
12471;BME280;36499;46.484;13.832;2023-01-29T07:14:07;93770.75;;;0.79;72.49
12471;BME280;36499;46.484;13.832;2023-01-29T07:16:34;93784.50;;;0.78;72.54
12471;BME280;36499;46.484;13.832;2023-01-29T07:19:01;93782.88;;;0.77;72.71
12471;BME280;36499;46.484;13.832;2023-01-29T07:21:29;93780.19;;;0.78;72.99
12471;BME280;36499;46.484;13.832;2023-01-29T07:23:56;93785.31;;;0.78;73.32
12471;BME280;36499;46.484;13.832;2023-01-29T07:26:23;93795.47;;;0.80;72.69
12471;BME280;36499;46.484;13.832;2023-01-29T07:28:50;93790.16;;;0.81;73.20
12471;BME280;36499;46.484;13.832;2023-01-29T07:31:18;93787.06;;;0.87;73.34
12471;BME280;36499;46.484;13.832;2023-01-29T07:33:45;93787.16;;;0.95;72.78
12471;BME280;36499;46.484;13.832;2023-01-29T07:36:13;93781.25;;;0.95;73.23
12471;BME280;36499;46.484;13.832;2023-01-29T07:38:41;93782.03;;;0.95;73.18
12471;BME280;36499;46.484;13.832;2023-01-29T07:41:10;93781.50;;;1.02;72.55
12471;BME280;36499;46.484;13.832;2023-01-29T07:43:37;93778.91;;;1.11;72.35
12471;BME280;36499;46.484;13.832;2023-01-29T07:46:04;93782.16;;;1.13;71.64
12471;BME280;36499;46.484;13.832;2023-01-29T07:48:32;93778.78;;;1.03;69.62
12471;BME280;36499;46.484;13.832;2023-01-29T07:50:59;93776.09;;;1.05;70.50
12471;BME280;36499;46.484;13.832;2023-01-29T07:53:27;93784.50;;;0.87;70.59
12471;BME280;36499;46.484;13.832;2023-01-29T07:55:56;93783.69;;;0.77;70.83
12471;BME280;36499;46.484;13.832;2023-01-29T07:58:23;93777.75;;;0.77;71.06
12471;BME280;36499;46.484;13.832;2023-01-29T08:00:50;93777.22;;;0.73;71.09
12471;BME280;36499;46.484;13.832;2023-01-29T08:03:18;93780.47;;;0.75;71.19
12471;BME280;36499;46.484;13.832;2023-01-29T08:05:46;93776.41;;;0.82;71.13
12471;BME280;36499;46.484;13.832;2023-01-29T08:08:14;93780.44;;;0.85;71.26
12471;BME280;36499;46.484;13.832;2023-01-29T08:10:41;93776.94;;;0.76;69.85
12471;BME280;36499;46.484;13.832;2023-01-29T08:13:10;93770.22;;;0.75;70.38
12471;BME280;36499;46.484;13.832;2023-01-29T08:15:37;93767.50;;;0.67;70.11
12471;BME280;36499;46.484;13.832;2023-01-29T08:18:04;93764.41;;;0.64;70.35
12471;BME280;36499;46.484;13.832;2023-01-29T08:20:32;93764.25;;;0.65;70.53
12471;BME280;36499;46.484;13.832;2023-01-29T08:23:00;93770.75;;;0.60;69.90
12471;BME280;36499;46.484;13.832;2023-01-29T08:25:28;93761.84;;;0.54;70.19
12471;BME280;36499;46.484;13.832;2023-01-29T08:27:56;93753.59;;;0.51;70.20
12471;BME280;36499;46.484;13.832;2023-01-29T08:30:25;93749.03;;;0.44;70.30
12471;BME280;36499;46.484;13.832;2023-01-29T08:32:53;93744.03;;;0.43;69.40
12471;BME280;36499;46.484;13.832;2023-01-29T08:35:20;93751.72;;;0.43;69.68
12471;BME280;36499;46.484;13.832;2023-01-29T08:37:54;93749.69;;;0.46;69.69
12471;BME280;36499;46.484;13.832;2023-01-29T08:40:24;93759.44;;;0.53;69.70
12471;BME280;36499;46.484;13.832;2023-01-29T08:42:51;93749.69;;;0.56;69.66
12471;BME280;36499;46.484;13.832;2023-01-29T08:45:18;93748.19;;;0.63;70.16
12471;BME280;36499;46.484;13.832;2023-01-29T08:47:47;93743.47;;;0.68;68.22
12471;BME280;36499;46.484;13.832;2023-01-29T08:50:15;93746.84;;;0.59;68.06
12471;BME280;36499;46.484;13.832;2023-01-29T08:52:44;93751.06;;;0.60;68.34
12471;BME280;36499;46.484;13.832;2023-01-29T08:55:12;93752.25;;;0.46;68.37
12471;BME280;36499;46.484;13.832;2023-01-29T08:57:39;93754.81;;;0.46;69.10
12471;BME280;36499;46.484;13.832;2023-01-29T09:00:09;93751.13;;;0.97;77.48
12471;BME280;36499;46.484;13.832;2023-01-29T09:02:37;93745.44;;;1.40;75.75
12471;BME280;36499;46.484;13.832;2023-01-29T09:05:07;93739.31;;;1.78;71.41
12471;BME280;36499;46.484;13.832;2023-01-29T09:07:34;93750.84;;;1.91;68.29
12471;BME280;36499;46.484;13.832;2023-01-29T09:10:02;93757.31;;;1.78;65.66
12471;BME280;36499;46.484;13.832;2023-01-29T09:12:30;93753.78;;;1.52;65.27
12471;BME280;36499;46.484;13.832;2023-01-29T09:14:57;93752.88;;;1.33;64.94
12471;BME280;36499;46.484;13.832;2023-01-29T09:17:24;93762.81;;;1.19;65.39
12471;BME280;36499;46.484;13.832;2023-01-29T09:19:51;93755.56;;;1.05;65.87
12471;BME280;36499;46.484;13.832;2023-01-29T09:22:19;93756.91;;;1.09;65.85
12471;BME280;36499;46.484;13.832;2023-01-29T09:24:46;93758.25;;;1.03;66.69
12471;BME280;36499;46.484;13.832;2023-01-29T09:27:13;93763.66;;;1.10;67.13
12471;BME280;36499;46.484;13.832;2023-01-29T09:29:40;93754.66;;;1.33;67.46
12471;BME280;36499;46.484;13.832;2023-01-29T09:32:08;93753.22;;;1.75;67.28
12471;BME280;36499;46.484;13.832;2023-01-29T09:34:35;93749.56;;;2.05;65.84
12471;BME280;36499;46.484;13.832;2023-01-29T09:37:02;93750.16;;;2.34;65.43
12471;BME280;36499;46.484;13.832;2023-01-29T09:39:31;93756.38;;;2.67;64.74
12471;BME280;36499;46.484;13.832;2023-01-29T09:42:06;93760.66;;;2.76;62.36
12471;BME280;36499;46.484;13.832;2023-01-29T09:44:54;93755.72;;;2.83;63.43
12471;BME280;36499;46.484;13.832;2023-01-29T09:47:27;93760.53;;;3.04;63.11
12471;BME280;36499;46.484;13.832;2023-01-29T09:49:58;93758.09;;;3.28;62.43
12471;BME280;36499;46.484;13.832;2023-01-29T09:52:32;93766.28;;;3.49;62.17
12471;BME280;36499;46.484;13.832;2023-01-29T09:55:11;93759.00;;;3.78;61.87
12471;BME280;36499;46.484;13.832;2023-01-29T09:57:47;93757.34;;;4.11;60.76
12471;BME280;36499;46.484;13.832;2023-01-29T10:00:23;93754.66;;;4.29;59.37
12471;BME280;36499;46.484;13.832;2023-01-29T10:03:13;93750.97;;;4.40;57.96
12471;BME280;36499;46.484;13.832;2023-01-29T10:06:03;93748.22;;;4.65;58.39
12471;BME280;36499;46.484;13.832;2023-01-29T10:08:54;93743.06;;;4.49;58.42
12471;BME280;36499;46.484;13.832;2023-01-29T10:11:38;93742.13;;;4.74;57.30
12471;BME280;36499;46.484;13.832;2023-01-29T10:14:18;93741.13;;;5.00;57.23
12471;BME280;36499;46.484;13.832;2023-01-29T10:17:06;93729.19;;;4.99;57.85
12471;BME280;36499;46.484;13.832;2023-01-29T10:20:00;93729.94;;;5.31;57.17
12471;BME280;36499;46.484;13.832;2023-01-29T10:22:52;93727.03;;;5.26;56.66
12471;BME280;36499;46.484;13.832;2023-01-29T10:25:23;93722.78;;;5.58;55.49
12471;BME280;36499;46.484;13.832;2023-01-29T10:27:56;93721.00;;;5.50;55.88
12471;BME280;36499;46.484;13.832;2023-01-29T10:30:32;93719.47;;;5.72;55.46
12471;BME280;36499;46.484;13.832;2023-01-29T10:33:04;93715.56;;;5.84;54.59
12471;BME280;36499;46.484;13.832;2023-01-29T10:35:36;93713.94;;;5.91;54.31
12471;BME280;36499;46.484;13.832;2023-01-29T10:38:20;93708.59;;;5.93;54.16
12471;BME280;36499;46.484;13.832;2023-01-29T10:41:00;93703.41;;;5.93;53.73
12471;BME280;36499;46.484;13.832;2023-01-29T10:43:48;93704.22;;;5.93;54.24
12471;BME280;36499;46.484;13.832;2023-01-29T10:46:30;93699.22;;;5.84;54.17
12471;BME280;36499;46.484;13.832;2023-01-29T10:49:17;93693.53;;;5.96;53.43
12471;BME280;36499;46.484;13.832;2023-01-29T10:52:06;93686.88;;;6.24;53.71
12471;BME280;36499;46.484;13.832;2023-01-29T10:54:58;93684.13;;;6.03;54.67
12471;BME280;36499;46.484;13.832;2023-01-29T10:57:53;93677.19;;;6.26;53.94
12471;BME280;36499;46.484;13.832;2023-01-29T11:00:29;93675.16;;;6.37;53.71
12471;BME280;36499;46.484;13.832;2023-01-29T11:03:14;93670.16;;;6.58;53.24
12471;BME280;36499;46.484;13.832;2023-01-29T11:05:50;93664.53;;;6.54;52.89
12471;BME280;36499;46.484;13.832;2023-01-29T11:08:24;93661.84;;;6.62;52.17
12471;BME280;36499;46.484;13.832;2023-01-29T11:11:05;93663.16;;;6.58;51.85
12471;BME280;36499;46.484;13.832;2023-01-29T11:13:40;93653.66;;;6.73;51.97
12471;BME280;36499;46.484;13.832;2023-01-29T11:16:10;93659.81;;;7.10;51.09
12471;BME280;36499;46.484;13.832;2023-01-29T11:18:54;93648.53;;;7.03;51.43
12471;BME280;36499;46.484;13.832;2023-01-29T11:21:22;93648.72;;;7.01;51.14
12471;BME280;36499;46.484;13.832;2023-01-29T11:24:04;93648.91;;;7.00;51.44
12471;BME280;36499;46.484;13.832;2023-01-29T11:26:39;93650.78;;;7.20;51.37
12471;BME280;36499;46.484;13.832;2023-01-29T11:29:32;93650.69;;;7.14;51.09
12471;BME280;36499;46.484;13.832;2023-01-29T11:32:05;93645.75;;;6.90;50.89
12471;BME280;36499;46.484;13.832;2023-01-29T11:34:33;93643.50;;;6.87;51.93
12471;BME280;36499;46.484;13.832;2023-01-29T11:37:02;93637.50;;;6.71;51.72
12471;BME280;36499;46.484;13.832;2023-01-29T11:39:31;93636.03;;;6.92;51.69
12471;BME280;36499;46.484;13.832;2023-01-29T11:42:00;93633.22;;;6.93;51.35
12471;BME280;36499;46.484;13.832;2023-01-29T11:44:33;93625.38;;;6.87;51.42
12471;BME280;36499;46.484;13.832;2023-01-29T11:47:17;93624.09;;;6.68;52.23
12471;BME280;36499;46.484;13.832;2023-01-29T11:49:47;93630.41;;;7.03;51.36
12471;BME280;36499;46.484;13.832;2023-01-29T11:52:18;93624.03;;;6.91;51.30
12471;BME280;36499;46.484;13.832;2023-01-29T11:54:51;93622.78;;;7.16;51.39
12471;BME280;36499;46.484;13.832;2023-01-29T11:57:28;93617.88;;;6.92;51.49
12471;BME280;36499;46.484;13.832;2023-01-29T12:00:00;93613.69;;;7.05;51.93
12471;BME280;36499;46.484;13.832;2023-01-29T12:02:35;93605.19;;;7.26;51.40
12471;BME280;36499;46.484;13.832;2023-01-29T12:05:13;93605.81;;;7.28;50.97
12471;BME280;36499;46.484;13.832;2023-01-29T12:07:43;93597.69;;;7.16;50.79
12471;BME280;36499;46.484;13.832;2023-01-29T12:10:30;93594.19;;;7.24;50.79
12471;BME280;36499;46.484;13.832;2023-01-29T12:13:04;93595.50;;;7.35;49.93
12471;BME280;36499;46.484;13.832;2023-01-29T12:15:32;93592.66;;;7.44;50.71
12471;BME280;36499;46.484;13.832;2023-01-29T12:18:10;93588.47;;;7.29;50.20
12471;BME280;36499;46.484;13.832;2023-01-29T12:20:43;93573.31;;;7.47;49.62
12471;BME280;36499;46.484;13.832;2023-01-29T12:23:23;93561.78;;;7.49;49.30
12471;BME280;36499;46.484;13.832;2023-01-29T12:26:00;93566.88;;;7.43;48.83
12471;BME280;36499;46.484;13.832;2023-01-29T12:28:43;93571.06;;;7.58;49.88
12471;BME280;36499;46.484;13.832;2023-01-29T12:31:25;93571.88;;;7.59;49.30
12471;BME280;36499;46.484;13.832;2023-01-29T12:34:04;93577.50;;;7.62;49.25
12471;BME280;36499;46.484;13.832;2023-01-29T12:36:39;93583.53;;;7.48;49.00
12471;BME280;36499;46.484;13.832;2023-01-29T12:39:10;93581.75;;;7.49;48.95
12471;BME280;36499;46.484;13.832;2023-01-29T12:41:44;93580.56;;;7.51;49.15
12471;BME280;36499;46.484;13.832;2023-01-29T12:44:18;93576.31;;;7.29;49.20
12471;BME280;36499;46.484;13.832;2023-01-29T12:46:52;93564.16;;;7.15;50.10
12471;BME280;36499;46.484;13.832;2023-01-29T12:49:27;93561.91;;;6.97;49.48
12471;BME280;36499;46.484;13.832;2023-01-29T12:52:00;93556.47;;;7.07;50.31
12471;BME280;36499;46.484;13.832;2023-01-29T12:54:36;93555.66;;;7.06;49.86
12471;BME280;36499;46.484;13.832;2023-01-29T12:57:17;93547.88;;;7.21;50.30
12471;BME280;36499;46.484;13.832;2023-01-29T12:59:51;93548.34;;;7.10;50.71
12471;BME280;36499;46.484;13.832;2023-01-29T13:02:34;93552.78;;;7.16;50.78
12471;BME280;36499;46.484;13.832;2023-01-29T13:05:16;93552.44;;;7.04;51.27
12471;BME280;36499;46.484;13.832;2023-01-29T13:07:48;93559.75;;;6.42;51.69
12471;BME280;36499;46.484;13.832;2023-01-29T13:10:23;93560.84;;;6.25;51.60
12471;BME280;36499;46.484;13.832;2023-01-29T13:13:01;93563.06;;;5.91;52.57
12471;BME280;36499;46.484;13.832;2023-01-29T13:15:34;93562.63;;;5.48;52.37
12471;BME280;36499;46.484;13.832;2023-01-29T13:18:36;93559.81;;;5.35;53.38
12471;BME280;36499;46.484;13.832;2023-01-29T13:21:13;93558.63;;;5.07;54.27
12471;BME280;36499;46.484;13.832;2023-01-29T13:23:45;93555.16;;;4.92;55.28
12471;BME280;36499;46.484;13.832;2023-01-29T13:26:17;93561.50;;;4.73;55.52
12471;BME280;36499;46.484;13.832;2023-01-29T13:28:45;93555.59;;;4.56;54.94
12471;BME280;36499;46.484;13.832;2023-01-29T13:31:28;93564.31;;;4.39;55.35
12471;BME280;36499;46.484;13.832;2023-01-29T13:34:13;93556.91;;;4.20;56.37
12471;BME280;36499;46.484;13.832;2023-01-29T13:36:45;93557.72;;;4.12;55.75